createdAt,value
2022-12-15T00:04:34.381Z,30.65
2022-12-15T00:09:54.270Z,29.98
2022-12-15T00:15:14.094Z,29.65
2022-12-15T00:20:34.439Z,27.50
2022-12-15T00:25:54.169Z,24.23
2022-12-15T00:31:17.330Z,28.10
2022-12-15T00:36:37.075Z,29.17
2022-12-15T00:41:38.551Z,26.58
2022-12-15T00:46:55.234Z,30.60
2022-12-15T00:52:15.142Z,27.10
2022-12-15T00:57:35.327Z,32.15
2022-12-15T01:02:55.419Z,31.75
2022-12-15T01:08:18.462Z,27.38
2022-12-15T01:13:38.699Z,24.27
2022-12-15T01:18:58.806Z,26.83
2022-12-15T01:24:00.260Z,30.25
2022-12-15T01:29:01.686Z,28.92
2022-12-15T01:34:03.099Z,24.80
2022-12-15T01:39:04.493Z,29.80
2022-12-15T01:44:21.370Z,33.22
2022-12-15T01:49:29.412Z,26.88
2022-12-15T01:54:42.051Z,27.90
2022-12-15T01:59:50.699Z,26.97
2022-12-15T02:04:56.478Z,26.90
2022-12-15T02:10:02.166Z,31.88
2022-12-15T02:15:30.065Z,29.27
2022-12-15T02:20:44.327Z,28.27
2022-12-15T02:26:16.799Z,29.77
2022-12-15T02:31:50.000Z,34.13
2022-12-15T02:41:57.002Z,31.55
2022-12-15T02:47:16.947Z,32.90
2022-12-15T02:52:42.215Z,26.88
2022-12-15T02:58:12.990Z,24.35
2022-12-15T03:03:20.104Z,25.20
2022-12-15T03:08:22.206Z,25.20
2022-12-15T03:13:24.902Z,26.80
2022-12-15T03:18:27.050Z,25.45
2022-12-15T03:23:28.889Z,25.02
2022-12-15T03:28:30.623Z,25.27
2022-12-15T03:33:34.050Z,25.08
2022-12-15T03:38:35.804Z,26.50
2022-12-15T03:43:37.227Z,23.70
2022-12-15T03:48:38.657Z,23.08
2022-12-15T03:53:40.744Z,25.90
2022-12-15T03:58:42.510Z,22.17
2022-12-15T04:03:43.986Z,25.58
2022-12-15T04:08:45.438Z,23.75
2022-12-15T04:13:51.188Z,23.23
2022-12-15T04:19:12.566Z,21.80
2022-12-15T04:24:32.867Z,23.55
2022-12-15T04:29:52.720Z,20.10
2022-12-15T04:35:12.520Z,21.98
2022-12-15T04:40:32.779Z,23.20
2022-12-15T04:45:52.780Z,21.15
2022-12-15T04:51:12.835Z,23.20
2022-12-15T04:56:34.196Z,19.65
2022-12-15T05:01:54.216Z,20.40
2022-12-15T05:07:14.443Z,19.48
2022-12-15T05:12:34.364Z,17.80
2022-12-15T05:17:54.627Z,21.23
2022-12-15T05:23:15.462Z,19.25
2022-12-15T05:28:35.477Z,19.88
2022-12-15T05:33:36.913Z,19.60
2022-12-15T05:38:38.336Z,19.20
2022-12-15T05:43:39.749Z,21.45
2022-12-15T05:48:41.659Z,20.70
2022-12-15T05:53:43.059Z,18.95
2022-12-15T05:58:45.705Z,16.92
2022-12-15T06:03:47.271Z,19.83
2022-12-15T06:08:50.049Z,16.80
2022-12-15T06:13:51.708Z,17.00
2022-12-15T06:18:56.555Z,16.45
2022-12-15T06:23:58.070Z,15.27
2022-12-15T06:29:03.827Z,14.65
2022-12-15T06:34:07.912Z,19.92
2022-12-15T06:39:12.631Z,15.18
2022-12-15T06:44:15.497Z,15.50
2022-12-15T06:49:16.927Z,15.82
2022-12-15T06:54:18.820Z,16.13
2022-12-15T06:59:20.342Z,16.08
2022-12-15T07:04:21.826Z,17.25
2022-12-15T07:09:26.048Z,16.23
2022-12-15T07:14:27.772Z,13.75
2022-12-15T07:19:29.881Z,15.70
2022-12-15T07:24:31.363Z,16.75
2022-12-15T07:29:32.779Z,17.50
2022-12-15T07:34:34.287Z,15.63
2022-12-15T07:39:36.171Z,14.35
2022-12-15T07:44:37.674Z,15.68
2022-12-15T07:49:39.198Z,14.38
2022-12-15T07:54:40.777Z,12.18
2022-12-15T07:59:42.869Z,14.45
2022-12-15T08:04:44.528Z,12.43
2022-12-15T08:09:48.198Z,15.93
2022-12-15T08:14:50.590Z,13.65
2022-12-15T08:19:55.732Z,12.43
2022-12-15T08:25:00.151Z,13.10
2022-12-15T08:30:01.583Z,13.32
2022-12-15T08:35:03.226Z,19.83
2022-12-15T08:40:06.355Z,14.63
2022-12-15T08:45:08.397Z,13.23
2022-12-15T08:50:10.784Z,13.07
2022-12-15T08:55:12.207Z,14.45
2022-12-15T09:00:14.173Z,15.63
2022-12-15T09:05:15.840Z,16.25
2022-12-15T09:10:17.355Z,15.60
2022-12-15T09:15:19.259Z,12.68
2022-12-15T09:20:20.855Z,14.18
2022-12-15T09:25:22.256Z,15.95
2022-12-15T09:30:23.686Z,14.05
2022-12-15T09:35:28.305Z,12.48
2022-12-15T09:40:30.007Z,14.65
2022-12-15T09:45:39.682Z,15.73
2022-12-15T09:50:44.519Z,16.50
2022-12-15T09:55:52.251Z,16.88
2022-12-15T10:00:57.666Z,12.00
2022-12-15T10:06:21.809Z,13.38
2022-12-15T10:11:50.736Z,11.80
2022-12-15T10:17:00.967Z,11.70
2022-12-15T10:22:02.576Z,12.50
2022-12-15T10:27:13.116Z,13.65
2022-12-15T10:32:29.943Z,13.55
2022-12-15T10:37:31.873Z,12.93
2022-12-15T10:42:46.320Z,11.95
2022-12-15T10:48:02.609Z,13.18
2022-12-15T10:53:09.238Z,14.35
2022-12-15T10:58:21.802Z,14.05
2022-12-15T11:03:26.229Z,12.57
2022-12-15T11:08:29.024Z,15.23
2022-12-15T11:13:34.786Z,17.67
2022-12-15T11:18:53.397Z,14.70
2022-12-15T11:24:21.632Z,14.90
2022-12-15T11:29:23.398Z,13.80
2022-12-15T11:34:35.811Z,16.02
2022-12-15T11:39:53.323Z,14.67
2022-12-15T11:45:37.621Z,15.88
2022-12-15T11:51:06.339Z,14.77
2022-12-15T11:56:41.746Z,18.00
2022-12-15T12:07:32.838Z,17.80
2022-12-15T12:13:07.306Z,15.98
2022-12-15T12:18:23.004Z,11.73
2022-12-15T12:23:35.026Z,17.60
2022-12-15T12:29:06.445Z,18.50
2022-12-15T12:34:17.995Z,13.27
2022-12-15T12:39:22.496Z,11.15
2022-12-15T12:44:33.532Z,13.73
2022-12-15T12:49:44.184Z,14.18
2022-12-15T12:54:58.538Z,14.10
2022-12-15T13:00:07.464Z,13.27
2022-12-15T13:05:29.096Z,14.70
2022-12-15T13:10:38.952Z,22.55
2022-12-15T13:15:45.745Z,25.25
2022-12-15T13:20:57.197Z,24.27
2022-12-15T13:25:59.070Z,22.15
2022-12-15T13:31:16.349Z,21.83
2022-12-15T13:36:36.494Z,20.75
2022-12-15T13:42:00.285Z,22.58
2022-12-15T13:47:22.901Z,19.85
2022-12-15T13:52:44.331Z,18.42
2022-12-15T13:57:54.172Z,21.02
2022-12-15T14:03:07.428Z,23.10
2022-12-15T14:08:16.591Z,20.88
2022-12-15T14:13:31.797Z,18.30
2022-12-15T14:18:36.056Z,17.13
2022-12-15T14:24:04.005Z,15.02
2022-12-15T14:29:06.316Z,18.92
2022-12-15T14:34:14.489Z,14.55
2022-12-15T14:39:28.059Z,20.15
2022-12-15T14:44:38.167Z,17.00
2022-12-15T14:49:42.919Z,17.08
2022-12-15T14:54:57.221Z,14.57
2022-12-15T14:59:59.425Z,14.90
2022-12-15T15:03:10.517Z,17.75
2022-12-15T15:05:05.147Z,14.23
2022-12-15T15:10:22.818Z,17.48
2022-12-15T15:15:26.459Z,17.00
2022-12-15T15:20:30.572Z,18.63
2022-12-15T15:25:39.850Z,15.20
2022-12-15T15:30:48.572Z,18.35
2022-12-15T15:35:53.725Z,15.13
2022-12-15T15:40:58.055Z,21.40
2022-12-15T15:46:09.972Z,22.95
2022-12-15T15:51:12.355Z,24.58
2022-12-15T15:56:16.343Z,14.90
2022-12-15T16:01:17.927Z,17.33
2022-12-15T16:06:21.713Z,21.52
2022-12-15T16:11:25.231Z,22.80
2022-12-15T16:16:31.099Z,17.63
2022-12-15T16:21:32.710Z,18.77
2022-12-15T16:26:37.201Z,20.27
2022-12-15T16:31:41.948Z,18.13
2022-12-15T16:36:44.708Z,15.77
2022-12-15T16:41:46.123Z,22.70
2022-12-15T16:46:47.838Z,25.52
2022-12-15T16:51:52.316Z,25.45
2022-12-15T16:56:54.904Z,28.33
2022-12-15T17:01:57.530Z,19.10
2022-12-15T17:06:59.065Z,19.65
2022-12-15T17:12:01.263Z,21.38
2022-12-15T17:17:02.797Z,18.02
2022-12-15T17:22:04.260Z,20.30
2022-12-15T17:27:05.923Z,16.58
2022-12-15T17:32:12.764Z,14.63
2022-12-15T17:37:14.498Z,16.38
2022-12-15T17:42:20.581Z,24.10
2022-12-15T17:47:24.048Z,24.85
2022-12-15T17:52:29.738Z,17.83
2022-12-15T17:57:31.896Z,16.65
2022-12-15T18:02:33.518Z,12.32
2022-12-15T18:07:36.039Z,45.30
2022-12-15T18:12:37.443Z,29.60
2022-12-15T18:17:38.863Z,18.42
2022-12-15T18:22:40.680Z,16.30
2022-12-15T18:27:42.238Z,15.57
2022-12-15T18:32:45.192Z,13.65
2022-12-15T18:37:47.254Z,14.27
2022-12-15T18:42:49.108Z,13.15
2022-12-15T18:47:52.207Z,17.85
2022-12-15T18:53:01.805Z,17.42
2022-12-15T18:58:03.323Z,18.88
2022-12-15T19:03:05.030Z,16.15
2022-12-15T19:08:13.211Z,13.80
2022-12-15T19:13:16.357Z,14.75
2022-12-15T19:18:38.432Z,12.85
2022-12-15T19:23:39.884Z,16.33
2022-12-15T19:28:41.284Z,16.20
2022-12-15T19:33:42.706Z,17.10
2022-12-15T19:38:45.270Z,16.27
2022-12-15T19:43:49.774Z,16.60
2022-12-15T19:48:54.050Z,14.63
2022-12-15T19:54:00.906Z,14.30
2022-12-15T19:59:02.836Z,13.60
2022-12-15T20:04:04.364Z,15.65
2022-12-15T20:09:07.056Z,15.00
2022-12-15T20:14:13.956Z,20.95
2022-12-15T20:19:15.881Z,30.55
2022-12-15T20:24:19.205Z,22.65
2022-12-15T20:34:25.301Z,24.00
2022-12-15T20:39:29.368Z,40.53
2022-12-15T20:44:30.835Z,31.45
2022-12-15T20:49:32.450Z,28.25
2022-12-15T20:54:33.944Z,37.88
2022-12-15T20:59:35.489Z,37.25
2022-12-15T21:04:36.944Z,38.97
2022-12-15T21:09:39.043Z,43.03
2022-12-15T21:14:40.993Z,43.35
2022-12-15T21:19:42.911Z,45.95
2022-12-15T21:24:44.805Z,45.25
2022-12-15T21:29:52.367Z,47.55
2022-12-15T21:34:54.808Z,46.00
2022-12-15T21:39:58.160Z,51.40
2022-12-15T21:50:01.371Z,42.97
2022-12-15T21:55:02.875Z,44.70
2022-12-15T22:00:10.443Z,49.60
2022-12-15T22:05:29.127Z,50.25
2022-12-15T22:10:30.574Z,45.13
2022-12-15T22:15:32.640Z,49.08
2022-12-15T22:20:34.135Z,42.70
2022-12-15T22:25:35.680Z,44.47
2022-12-15T22:30:37.306Z,49.00
2022-12-15T22:35:38.807Z,49.67
2022-12-15T22:40:40.279Z,46.67
2022-12-15T22:45:42.902Z,53.88
2022-12-15T22:50:44.595Z,53.28
2022-12-15T22:55:48.691Z,53.83
2022-12-15T23:00:52.255Z,55.53
2022-12-15T23:05:55.434Z,54.50
2022-12-15T23:11:16.914Z,47.15
2022-12-15T23:16:21.507Z,57.95
2022-12-15T23:21:26.654Z,49.80
2022-12-15T23:26:28.056Z,52.97
2022-12-15T23:31:30.208Z,52.92
2022-12-15T23:36:31.699Z,55.92
2022-12-15T23:41:33.151Z,56.80
2022-12-15T23:46:34.700Z,55.05
2022-12-15T23:51:36.166Z,58.00
2022-12-15T23:56:39.254Z,54.53
